Flugwetter

METAR EDDW
2024/06/22 13:20 EDDW 221320Z AUTO 29009KT 260V320 9999 SCT029 BKN037 20/14 Q1011 NOSIG
TAF EDDW
2024/06/22 12:27 TAF EDDW 221100Z 2212/2312 26010KT 9999 BKN020 BECMG 2220/2223 30004KT PROB30 TEMPO 2300/2306 2000 BCFG BECMG 2307/2310 28009KT
METAR EDDH
2024/06/22 13:20 EDDH 221320Z AUTO 28011KT 220V320 9999 BKN036 BKN046 21/13 Q1010 NOSIG
TAF EDDH
2024/06/22 12:27 TAF EDDH 221100Z 2212/2318 28012KT 9999 SCT030 PROB30 TEMPO 2212/2216 28015G25KT BECMG 2217/2220 30005KT TEMPO 2300/2308 BKN012 PROB30 TEMPO 2300/2306 BKN008 BECMG 2307/2310 30010KT
METAR VRMM
2024/06/22 13:00 VRMM 221300Z 30023KT 6000 -RA FEW011 SCT016 FEW017CB OVC100 26/25 Q1009 CB S W TEMPO 26025G45KT 2000 TSRA
TAF VRMM
2024/06/22 12:06 TAF VRMM 221100Z 2212/2318 24018KT 9000 SCT017TCU OVC100 TEMPO 2212/2218 25022G48KT 3000 TSRA SCT016CB

Quelle:

Bereitgestellt von den Servern der NOAA tgftp.nws.noaa.gov
Alle Angaben ohne Gewähr